createdAt,value
2024-01-21T00:00:29.472Z,15.05
2024-01-21T00:03:32.107Z,15.43
2024-01-21T00:06:14.482Z,15.40
2024-01-21T00:08:56.980Z,14.88
2024-01-21T00:11:39.297Z,15.80
2024-01-21T00:14:21.813Z,15.73
2024-01-21T00:17:06.206Z,14.95
2024-01-21T00:19:48.877Z,15.50
2024-01-21T00:22:31.128Z,16.52
2024-01-21T00:25:13.693Z,14.23
2024-01-21T00:27:55.886Z,15.85
2024-01-21T00:30:38.420Z,19.40
2024-01-21T00:33:22.070Z,16.63
2024-01-21T00:36:05.041Z,16.75
2024-01-21T00:38:47.811Z,15.98
2024-01-21T00:41:30.456Z,14.60
2024-01-21T00:44:12.699Z,20.67
2024-01-21T00:46:55.140Z,17.92
2024-01-21T00:49:41.157Z,16.65
2024-01-21T00:52:23.832Z,20.63
2024-01-21T00:55:06.560Z,22.67
2024-01-21T00:57:49.372Z,20.63
2024-01-21T01:00:32.019Z,19.90
2024-01-21T01:03:14.927Z,18.50
2024-01-21T01:05:57.944Z,18.48
2024-01-21T01:08:40.523Z,16.05
2024-01-21T01:11:22.879Z,24.92
2024-01-21T01:14:05.539Z,18.10
2024-01-21T01:16:48.530Z,26.48
2024-01-21T01:19:31.204Z,18.65
2024-01-21T01:22:13.886Z,18.58
2024-01-21T01:24:56.430Z,16.58
2024-01-21T01:27:38.734Z,22.35
2024-01-21T01:30:21.593Z,17.67
2024-01-21T01:33:04.118Z,17.30
2024-01-21T01:35:46.804Z,18.75
2024-01-21T01:38:29.033Z,19.67
2024-01-21T01:41:12.265Z,24.02
2024-01-21T01:43:54.601Z,23.02
2024-01-21T01:46:37.271Z,18.75
2024-01-21T01:49:21.752Z,20.33
2024-01-21T01:52:05.889Z,18.88
2024-01-21T01:54:50.026Z,19.52
2024-01-21T01:57:32.832Z,17.30
2024-01-21T02:00:16.048Z,18.48
2024-01-21T02:02:59.676Z,21.08
2024-01-21T02:05:42.126Z,20.15
2024-01-21T02:08:24.844Z,17.80
2024-01-21T02:11:07.140Z,18.08
2024-01-21T02:13:50.481Z,18.65
2024-01-21T02:16:32.685Z,17.38
2024-01-21T02:19:27.429Z,17.95
2024-01-21T02:22:09.926Z,19.80
2024-01-21T02:24:52.546Z,21.48
2024-01-21T02:27:35.918Z,23.88
2024-01-21T02:30:18.675Z,20.75
2024-01-21T02:33:01.047Z,19.35
2024-01-21T02:35:43.611Z,18.25
2024-01-21T02:38:25.862Z,18.77
2024-01-21T02:41:08.625Z,18.23
2024-01-21T02:43:50.870Z,18.48
2024-01-21T02:46:33.415Z,19.10
2024-01-21T02:49:17.960Z,21.85
2024-01-21T02:52:00.637Z,19.30
2024-01-21T02:54:42.937Z,19.42
2024-01-21T02:57:25.528Z,19.42
2024-01-21T03:00:09.003Z,19.58
2024-01-21T03:02:54.102Z,24.10
2024-01-21T03:05:37.092Z,31.08
2024-01-21T03:08:19.625Z,24.88
2024-01-21T03:11:02.178Z,31.40
2024-01-21T03:13:44.762Z,25.08
2024-01-21T03:16:27.539Z,21.85
2024-01-21T03:19:10.063Z,19.75
2024-01-21T03:21:53.574Z,18.63
2024-01-21T03:24:36.126Z,18.20
2024-01-21T03:27:18.510Z,18.08
2024-01-21T03:30:01.047Z,20.00
2024-01-21T03:32:43.524Z,21.73
2024-01-21T03:35:26.281Z,20.30
2024-01-21T03:38:08.744Z,20.95
2024-01-21T03:40:51.239Z,20.42
2024-01-21T03:43:33.407Z,21.70
2024-01-21T03:46:15.931Z,22.52
2024-01-21T03:48:58.308Z,25.75
2024-01-21T03:51:40.853Z,23.75
2024-01-21T03:54:23.144Z,21.98
2024-01-21T03:57:05.841Z,21.05
2024-01-21T03:59:48.653Z,20.40
2024-01-21T04:02:32.008Z,19.02
2024-01-21T04:05:14.997Z,20.67
2024-01-21T04:07:58.061Z,20.38
2024-01-21T04:10:41.328Z,21.13
2024-01-21T04:13:24.123Z,23.30
2024-01-21T04:16:06.596Z,22.92
2024-01-21T04:18:49.412Z,23.33
2024-01-21T04:24:16.679Z,21.15
2024-01-21T04:26:58.933Z,21.17
2024-01-21T04:29:41.467Z,21.30
2024-01-21T04:32:23.681Z,28.15
2024-01-21T04:35:07.934Z,31.80
2024-01-21T04:37:50.661Z,28.05
2024-01-21T04:40:33.189Z,25.50
2024-01-21T04:43:15.409Z,23.05
2024-01-21T04:45:58.408Z,22.05
2024-01-21T04:48:40.866Z,21.42
2024-01-21T04:51:23.541Z,21.48
2024-01-21T04:54:05.974Z,22.83
2024-01-21T04:56:48.462Z,22.95
2024-01-21T04:59:30.665Z,24.00
2024-01-21T05:02:13.205Z,23.48
2024-01-21T05:04:55.401Z,25.90
2024-01-21T05:07:38.456Z,24.30
2024-01-21T05:10:20.876Z,20.65
2024-01-21T05:13:03.685Z,20.58
2024-01-21T05:15:46.514Z,21.05
2024-01-21T05:18:29.179Z,20.90
2024-01-21T05:21:11.462Z,21.90
2024-01-21T05:23:54.056Z,22.50
2024-01-21T05:26:46.179Z,19.77
2024-01-21T05:29:29.305Z,18.65
2024-01-21T05:32:11.522Z,19.92
2024-01-21T05:34:54.119Z,18.17
2024-01-21T05:37:36.478Z,18.90
2024-01-21T05:40:19.837Z,22.52
2024-01-21T05:43:02.374Z,24.60
2024-01-21T05:45:45.454Z,27.48
2024-01-21T05:48:27.792Z,39.20
2024-01-21T05:51:10.487Z,32.78
2024-01-21T05:53:52.842Z,37.50
2024-01-21T05:56:35.435Z,30.33
2024-01-21T05:59:18.797Z,25.25
2024-01-21T06:02:01.608Z,31.42
2024-01-21T06:04:43.903Z,26.63
2024-01-21T06:07:26.557Z,26.80
2024-01-21T06:10:09.465Z,30.10
2024-01-21T06:12:52.103Z,25.25
2024-01-21T06:15:34.472Z,27.85
2024-01-21T06:18:17.208Z,20.38
2024-01-21T06:20:59.544Z,40.67
2024-01-21T06:23:42.083Z,26.77
2024-01-21T06:26:24.349Z,27.48
2024-01-21T06:29:06.973Z,27.08
2024-01-21T06:31:49.198Z,29.23
2024-01-21T06:34:31.892Z,21.70
2024-01-21T06:37:14.225Z,25.55
2024-01-21T06:40:00.892Z,19.13
2024-01-21T06:42:45.999Z,19.65
2024-01-21T06:45:28.620Z,22.65
2024-01-21T06:48:11.172Z,20.42
2024-01-21T06:50:54.477Z,18.90
2024-01-21T06:53:37.233Z,23.38
2024-01-21T06:56:19.761Z,16.70
2024-01-21T06:59:02.078Z,20.75
2024-01-21T07:01:44.823Z,21.63
2024-01-21T07:04:27.389Z,17.02
2024-01-21T07:07:10.241Z,17.92
2024-01-21T07:09:52.756Z,20.17
2024-01-21T07:12:35.829Z,23.13
2024-01-21T07:15:18.317Z,23.85
2024-01-21T07:18:01.159Z,23.90
2024-01-21T07:20:43.557Z,25.08
2024-01-21T07:23:27.236Z,21.13
2024-01-21T07:26:09.517Z,18.35
2024-01-21T07:28:52.748Z,18.65
2024-01-21T07:31:35.233Z,20.17
2024-01-21T07:34:18.051Z,18.77
2024-01-21T07:37:00.582Z,17.80
2024-01-21T07:39:43.354Z,20.67
2024-01-21T07:42:25.905Z,18.60
2024-01-21T07:45:09.282Z,22.10
2024-01-21T07:47:51.973Z,22.23
2024-01-21T07:50:35.074Z,21.00
2024-01-21T07:53:20.987Z,23.60
2024-01-21T07:56:03.982Z,24.45
2024-01-21T07:58:46.298Z,21.15
2024-01-21T08:01:29.151Z,24.20
2024-01-21T08:04:11.677Z,20.55
2024-01-21T08:06:54.483Z,25.95
2024-01-21T08:09:36.889Z,31.63
2024-01-21T08:12:19.929Z,25.35
2024-01-21T08:15:04.490Z,22.70
2024-01-21T08:17:47.210Z,21.02
2024-01-21T08:20:29.511Z,22.50
2024-01-21T08:23:12.149Z,22.20
2024-01-21T08:25:54.796Z,19.70
2024-01-21T08:28:38.834Z,20.60
2024-01-21T08:31:21.708Z,20.35
2024-01-21T08:34:05.058Z,20.58
2024-01-21T08:36:47.825Z,21.55
2024-01-21T08:39:30.547Z,17.25
2024-01-21T08:42:12.998Z,19.27
2024-01-21T08:44:55.829Z,18.02
2024-01-21T08:47:39.994Z,16.90
2024-01-21T08:50:22.759Z,14.45
2024-01-21T08:53:05.205Z,19.40
2024-01-21T08:55:48.643Z,16.25
2024-01-21T08:58:30.945Z,31.25
2024-01-21T09:01:13.553Z,28.63
2024-01-21T09:03:55.944Z,25.38
2024-01-21T09:06:43.128Z,17.65
2024-01-21T09:09:25.677Z,18.13
2024-01-21T09:12:10.214Z,19.83
2024-01-21T09:14:52.658Z,24.73
2024-01-21T09:17:35.253Z,19.88
2024-01-21T09:20:17.757Z,18.23
2024-01-21T09:23:00.386Z,16.77
2024-01-21T09:25:42.782Z,15.05
2024-01-21T09:28:25.477Z,15.35
2024-01-21T09:31:07.754Z,16.58
2024-01-21T09:33:50.705Z,16.08
2024-01-21T09:36:35.616Z,16.70
2024-01-21T09:39:19.305Z,17.02
2024-01-21T09:42:03.623Z,15.70
2024-01-21T09:44:47.210Z,15.93
2024-01-21T09:47:29.554Z,14.98
2024-01-21T09:50:12.818Z,18.00
2024-01-21T09:52:55.107Z,17.15
2024-01-21T09:55:38.234Z,16.73
2024-01-21T09:58:25.028Z,18.80
2024-01-21T10:01:08.454Z,34.38
2024-01-21T10:03:54.166Z,29.83
2024-01-21T10:06:38.627Z,20.77
2024-01-21T10:09:24.509Z,17.38
2024-01-21T10:12:08.695Z,25.08
2024-01-21T10:14:51.487Z,21.60
2024-01-21T10:17:34.508Z,20.92
2024-01-21T10:20:17.310Z,20.17
2024-01-21T10:23:11.661Z,14.75
2024-01-21T10:25:54.032Z,15.82
2024-01-21T10:28:36.623Z,16.23
2024-01-21T10:31:19.077Z,16.90
2024-01-21T10:34:03.888Z,15.82
2024-01-21T10:36:49.005Z,14.05
2024-01-21T10:39:35.300Z,15.90
2024-01-21T10:45:03.177Z,20.20
2024-01-21T10:47:46.072Z,13.93
2024-01-21T10:50:28.938Z,12.02
2024-01-21T10:53:17.372Z,12.85
2024-01-21T10:56:01.636Z,14.82
2024-01-21T10:58:44.153Z,18.85
2024-01-21T11:01:28.143Z,16.20
2024-01-21T11:04:14.415Z,13.48
2024-01-21T11:06:57.270Z,14.05
2024-01-21T11:09:41.300Z,20.25
2024-01-21T11:12:24.742Z,15.00
2024-01-21T11:15:29.617Z,13.48
2024-01-21T11:18:15.654Z,20.93
2024-01-21T11:21:01.049Z,15.93
2024-01-21T11:23:44.335Z,15.97
2024-01-21T11:26:29.800Z,20.67
2024-01-21T11:29:29.188Z,18.73
2024-01-21T11:32:12.379Z,19.77
2024-01-21T11:34:56.177Z,18.67
2024-01-21T11:37:41.123Z,17.65
2024-01-21T11:40:23.922Z,20.33
2024-01-21T11:43:06.465Z,22.77
2024-01-21T11:45:49.590Z,17.10
2024-01-21T11:48:32.266Z,18.02
2024-01-21T11:51:15.034Z,20.23
2024-01-21T11:53:57.317Z,16.98
2024-01-21T11:56:46.431Z,20.40
2024-01-21T11:59:31.004Z,16.13
2024-01-21T12:02:14.444Z,15.60
2024-01-21T12:04:57.027Z,18.55
2024-01-21T12:07:40.037Z,14.00
2024-01-21T12:10:22.691Z,13.35
2024-01-21T12:13:07.852Z,12.60
2024-01-21T12:15:51.565Z,16.50
2024-01-21T12:18:41.276Z,16.52
2024-01-21T12:21:27.132Z,13.25
2024-01-21T12:24:09.925Z,13.52
2024-01-21T12:26:56.613Z,11.77
2024-01-21T12:29:39.770Z,20.17
2024-01-21T12:32:23.378Z,19.48
2024-01-21T12:35:07.120Z,16.77
2024-01-21T12:37:50.076Z,24.27
2024-01-21T12:40:32.983Z,18.77
2024-01-21T12:43:17.724Z,19.45
2024-01-21T12:46:01.126Z,18.75
2024-01-21T12:48:43.603Z,14.65
2024-01-21T12:51:29.684Z,11.57
2024-01-21T12:54:12.160Z,12.43
2024-01-21T12:56:55.941Z,11.95
2024-01-21T12:59:38.612Z,13.35
2024-01-21T13:02:21.281Z,14.73
2024-01-21T13:05:04.195Z,13.35
2024-01-21T13:07:47.552Z,16.02
2024-01-21T13:10:30.624Z,18.00
2024-01-21T13:13:13.489Z,13.73
2024-01-21T13:15:56.784Z,14.15
2024-01-21T13:18:39.979Z,15.32
2024-01-21T13:21:23.346Z,14.07
2024-01-21T13:24:08.656Z,12.63
2024-01-21T13:26:53.853Z,14.32
2024-01-21T13:29:56.560Z,13.02
2024-01-21T13:32:39.451Z,13.40
2024-01-21T13:35:23.636Z,12.60
2024-01-21T13:38:06.989Z,12.15
2024-01-21T13:40:49.697Z,12.43
2024-01-21T13:43:32.429Z,14.13
2024-01-21T13:46:17.165Z,13.52
2024-01-21T13:48:59.612Z,12.48
2024-01-21T13:51:42.249Z,13.40
2024-01-21T13:54:24.573Z,14.15
2024-01-21T13:57:09.089Z,15.18
2024-01-21T13:59:51.395Z,13.93
2024-01-21T14:02:34.111Z,14.73
2024-01-21T14:05:16.754Z,17.45
2024-01-21T14:07:59.733Z,22.33
2024-01-21T14:10:42.148Z,23.02
2024-01-21T14:13:24.722Z,23.55
2024-01-21T14:16:10.712Z,23.65
2024-01-21T14:18:55.856Z,21.85
2024-01-21T14:21:38.322Z,20.60
2024-01-21T14:24:32.874Z,21.02
2024-01-21T14:27:16.320Z,22.37
2024-01-21T14:30:03.894Z,22.52
2024-01-21T14:32:46.319Z,21.83
2024-01-21T14:35:29.628Z,23.42
2024-01-21T14:38:12.086Z,22.23
2024-01-21T14:40:55.701Z,23.80
2024-01-21T14:43:38.010Z,23.88
2024-01-21T14:46:20.738Z,23.02
2024-01-21T14:49:03.502Z,23.65
2024-01-21T14:51:46.864Z,22.75
2024-01-21T14:54:29.336Z,21.30
2024-01-21T14:57:12.076Z,23.33
2024-01-21T14:59:55.015Z,22.75
2024-01-21T15:02:37.856Z,23.40
2024-01-21T15:05:20.630Z,23.15
2024-01-21T15:08:03.585Z,24.35
2024-01-21T15:10:47.014Z,29.83
2024-01-21T15:13:32.219Z,32.00
2024-01-21T15:16:14.591Z,32.08
2024-01-21T15:18:57.386Z,32.40
2024-01-21T15:21:39.963Z,30.50
2024-01-21T15:24:22.773Z,28.90
2024-01-21T15:27:06.304Z,28.15
2024-01-21T15:29:48.908Z,28.30
2024-01-21T15:32:31.701Z,29.33
2024-01-21T15:35:14.767Z,30.30
2024-01-21T15:37:57.126Z,28.48
2024-01-21T15:40:39.860Z,29.08
2024-01-21T15:43:22.176Z,29.52
2024-01-21T15:46:05.164Z,30.30
2024-01-21T15:48:47.667Z,30.52
2024-01-21T15:51:30.605Z,28.90
2024-01-21T15:54:14.155Z,29.25
2024-01-21T15:56:56.947Z,28.83
2024-01-21T15:59:39.320Z,29.60
2024-01-21T16:02:22.329Z,29.15
2024-01-21T16:05:05.189Z,30.73
2024-01-21T16:07:47.850Z,30.60
2024-01-21T16:10:30.112Z,29.85
2024-01-21T16:13:13.813Z,29.13
2024-01-21T16:15:56.343Z,30.17
2024-01-21T16:18:39.168Z,30.05
2024-01-21T16:21:22.201Z,30.40
2024-01-21T16:24:05.576Z,31.27
2024-01-21T16:26:47.946Z,29.75
2024-01-21T16:29:32.062Z,29.25
2024-01-21T16:32:15.688Z,27.83
2024-01-21T16:35:01.317Z,28.05
2024-01-21T16:40:27.476Z,26.38
2024-01-21T16:43:09.752Z,27.33
2024-01-21T16:45:53.202Z,26.80
2024-01-21T16:48:36.627Z,28.00
2024-01-21T16:51:19.909Z,31.80
2024-01-21T16:54:02.356Z,26.70
2024-01-21T16:56:45.203Z,28.13
2024-01-21T16:59:30.439Z,27.60
2024-01-21T17:02:18.977Z,26.83
2024-01-21T17:05:01.441Z,27.73
2024-01-21T17:07:46.166Z,25.98
2024-01-21T17:10:57.962Z,29.55
2024-01-21T17:13:40.859Z,29.48
2024-01-21T17:16:23.128Z,27.60
2024-01-21T17:19:07.306Z,26.63
2024-01-21T17:21:50.073Z,27.35
2024-01-21T17:24:32.752Z,27.98
2024-01-21T17:27:16.201Z,26.45
2024-01-21T17:29:58.851Z,25.73
2024-01-21T17:32:41.251Z,23.67
2024-01-21T17:35:23.879Z,24.85
2024-01-21T17:38:06.258Z,32.75
2024-01-21T17:40:48.865Z,28.45
2024-01-21T17:43:31.137Z,27.30
2024-01-21T17:46:18.072Z,26.52
2024-01-21T17:51:43.358Z,23.73
2024-01-21T17:54:25.644Z,22.48
2024-01-21T17:57:08.412Z,23.52
2024-01-21T17:59:52.174Z,25.85
2024-01-21T18:02:34.965Z,23.75
2024-01-21T18:05:18.630Z,23.30
2024-01-21T18:08:03.398Z,22.53
2024-01-21T18:10:45.733Z,20.33
2024-01-21T18:13:28.310Z,20.83
2024-01-21T18:16:10.655Z,22.52
2024-01-21T18:18:54.905Z,22.15
2024-01-21T18:21:37.494Z,21.45
2024-01-21T18:24:20.296Z,20.30
2024-01-21T18:27:02.738Z,19.80
2024-01-21T18:29:45.501Z,21.05
2024-01-21T18:32:28.958Z,22.98
2024-01-21T18:35:11.941Z,22.33
2024-01-21T18:37:54.565Z,21.60
2024-01-21T18:40:37.167Z,33.47
2024-01-21T18:43:19.569Z,30.52
2024-01-21T18:46:02.254Z,21.27
2024-01-21T18:48:45.116Z,23.48
2024-01-21T18:51:27.937Z,20.20
2024-01-21T18:54:10.403Z,16.88
2024-01-21T18:56:53.102Z,17.80
2024-01-21T18:59:35.373Z,19.35
2024-01-21T19:02:18.155Z,17.92
2024-01-21T19:05:00.477Z,18.05
2024-01-21T19:07:45.317Z,20.45
2024-01-21T19:13:12.386Z,18.38
2024-01-21T19:15:54.928Z,19.80
2024-01-21T19:18:37.787Z,17.52
2024-01-21T19:21:24.982Z,17.52
2024-01-21T19:24:09.960Z,17.42
2024-01-21T19:26:52.975Z,16.90
2024-01-21T19:29:35.757Z,16.23
2024-01-21T19:32:18.355Z,17.75
2024-01-21T19:35:01.493Z,15.77
2024-01-21T19:37:44.286Z,17.00
2024-01-21T19:40:27.879Z,16.45
2024-01-21T19:43:10.488Z,17.63
2024-01-21T19:45:53.292Z,15.98
2024-01-21T19:48:37.872Z,15.30
2024-01-21T19:51:25.069Z,16.95
2024-01-21T19:54:07.714Z,15.93
2024-01-21T19:56:50.726Z,15.93
2024-01-21T19:59:33.392Z,16.20
2024-01-21T20:02:17.548Z,16.27
2024-01-21T20:05:00.134Z,17.60
2024-01-21T20:07:43.424Z,16.02
2024-01-21T20:10:25.758Z,17.52
2024-01-21T20:13:08.530Z,15.95
2024-01-21T20:15:50.861Z,17.40
2024-01-21T20:18:33.710Z,32.97
2024-01-21T20:21:16.695Z,55.30
2024-01-21T20:23:59.633Z,51.85
2024-01-21T20:26:42.197Z,17.58
2024-01-21T20:29:26.064Z,15.52
2024-01-21T20:32:08.877Z,15.90
2024-01-21T20:34:52.926Z,17.65
2024-01-21T20:37:36.385Z,19.85
2024-01-21T20:40:19.212Z,19.17
2024-01-21T20:43:02.198Z,16.70
2024-01-21T20:45:44.999Z,14.57
2024-01-21T20:48:27.591Z,14.68
2024-01-21T20:51:11.029Z,13.93
2024-01-21T20:53:53.532Z,14.52
2024-01-21T20:56:36.426Z,14.50
2024-01-21T20:59:18.847Z,13.18
2024-01-21T21:02:01.569Z,11.73
2024-01-21T21:04:44.062Z,14.88
2024-01-21T21:07:26.819Z,23.23
2024-01-21T21:10:09.840Z,13.40
2024-01-21T21:12:54.170Z,11.07
2024-01-21T21:15:36.727Z,12.68
2024-01-21T21:18:19.596Z,11.85
2024-01-21T21:21:05.165Z,10.38
2024-01-21T21:23:47.908Z,12.55
2024-01-21T21:26:30.552Z,10.00
2024-01-21T21:29:13.306Z,17.77
2024-01-21T21:31:55.871Z,12.90
2024-01-21T21:34:39.289Z,12.07
2024-01-21T21:37:23.646Z,20.90
2024-01-21T21:40:07.124Z,12.90
2024-01-21T21:42:49.911Z,10.88
2024-01-21T21:45:32.577Z,14.32
2024-01-21T21:48:15.529Z,10.15
2024-01-21T21:50:59.013Z,13.05
2024-01-21T21:53:42.297Z,13.50
2024-01-21T21:56:25.011Z,14.70
2024-01-21T21:59:07.941Z,7.95
2024-01-21T22:01:50.966Z,8.57
2024-01-21T22:04:34.048Z,14.65
2024-01-21T22:07:16.742Z,14.60
2024-01-21T22:09:59.038Z,9.50
2024-01-21T22:12:41.692Z,13.52
2024-01-21T22:15:24.061Z,19.05
2024-01-21T22:18:09.422Z,14.65
2024-01-21T22:20:52.176Z,13.07
2024-01-21T22:23:34.900Z,9.90
2024-01-21T22:26:21.257Z,11.00
2024-01-21T22:29:03.920Z,9.32
2024-01-21T22:31:46.491Z,7.53
2024-01-21T22:34:29.401Z,7.93
2024-01-21T22:37:11.708Z,10.45
2024-01-21T22:39:54.534Z,9.02
2024-01-21T22:42:36.777Z,8.98
2024-01-21T22:45:19.501Z,11.13
2024-01-21T22:48:01.953Z,7.50
2024-01-21T22:50:45.006Z,8.07
2024-01-21T22:53:30.335Z,7.70
2024-01-21T22:56:12.948Z,12.30
2024-01-21T22:58:55.284Z,6.93
2024-01-21T23:01:40.436Z,6.45
2024-01-21T23:04:24.249Z,6.88
2024-01-21T23:07:07.029Z,11.02
2024-01-21T23:09:50.510Z,10.02
2024-01-21T23:12:33.253Z,8.00
2024-01-21T23:15:15.704Z,6.18
2024-01-21T23:17:58.378Z,14.25
2024-01-21T23:20:41.463Z,12.60
2024-01-21T23:23:24.112Z,6.88
2024-01-21T23:26:06.373Z,6.45
2024-01-21T23:28:49.201Z,7.05
2024-01-21T23:31:31.679Z,7.68
2024-01-21T23:34:14.453Z,6.68
2024-01-21T23:36:56.765Z,6.70
2024-01-21T23:39:39.396Z,11.50
2024-01-21T23:42:22.065Z,7.40
2024-01-21T23:45:05.181Z,6.28
2024-01-21T23:47:47.615Z,6.10
2024-01-21T23:50:30.370Z,11.50
2024-01-21T23:53:12.699Z,8.20
2024-01-21T23:55:55.650Z,7.57
2024-01-21T23:58:37.934Z,7.90
